Time;durP1;ratioP1;P1;durP2;ratioP2;P2;SDS_P1;SDS_P2;PMS_P1;PMS_P2;Temp;Humidity;BMP_temperature;BMP_pressure;BME280_temperature;BME280_humidity;BME280_pressure;Samples;Min_cycle;Max_cycle;Signal;HPM_P1;HPM_P2
2022/11/30 00:00:09;;;;;;;3.50;3.27;;;20.50;65.60;;;;;;5005849;28;20466;-65
2022/11/30 00:02:39;;;;;;;2.63;2.43;;;20.50;65.60;;;;;;5008725;28;20474;-64
2022/11/30 00:05:07;;;;;;;3.53;3.33;;;20.50;65.70;;;;;;5007525;28;20981;-64
2022/11/30 00:07:37;;;;;;;2.90;2.70;;;20.50;65.60;;;;;;5008820;28;20555;-64
2022/11/30 00:10:08;;;;;;;3.33;3.03;;;20.50;65.70;;;;;;5009969;28;20459;-63
2022/11/30 00:12:36;;;;;;;3.63;3.40;;;20.50;65.60;;;;;;5007096;28;20801;-64
2022/11/30 00:15:05;;;;;;;3.20;3.00;;;20.50;65.60;;;;;;5014962;28;20514;-64
2022/11/30 00:17:33;;;;;;;3.00;2.80;;;20.40;65.60;;;;;;5010191;28;20955;-64
2022/11/30 00:20:01;;;;;;;3.70;3.40;;;20.50;65.60;;;;;;5013731;28;20883;-63
2022/11/30 00:22:29;;;;;;;2.97;2.77;;;20.40;65.60;;;;;;5008912;28;20563;-63
2022/11/30 00:25:01;;;;;;;3.10;2.90;;;20.50;65.60;;;;;;5011959;28;20590;-63
2022/11/30 00:27:30;;;;;;;3.23;2.97;;;20.40;65.60;;;;;;5013378;28;20491;-64
2022/11/30 00:29:59;;;;;;;3.03;2.83;;;20.50;65.60;;;;;;5012360;28;21068;-64
2022/11/30 00:32:28;;;;;;;4.00;3.70;;;20.50;65.60;;;;;;5014560;28;20463;-64
2022/11/30 00:34:56;;;;;;;3.80;3.40;;;20.50;65.60;;;;;;5014067;28;20459;-64
2022/11/30 00:37:24;;;;;;;3.40;3.20;;;20.40;65.60;;;;;;5012833;28;20558;-64
2022/11/30 00:39:52;;;;;;;2.90;2.70;;;20.50;65.60;;;;;;5014569;28;20562;-63
2022/11/30 00:42:22;;;;;;;3.30;3.00;;;20.40;65.50;;;;;;5012285;28;20964;-63
2022/11/30 00:44:50;;;;;;;3.20;3.00;;;20.40;65.60;;;;;;5009846;28;20570;-63
2022/11/30 00:47:18;;;;;;;3.30;3.10;;;20.40;65.50;;;;;;5007130;28;20604;-64
2022/11/30 00:49:46;;;;;;;3.87;3.57;;;20.40;65.50;;;;;;5012025;28;20534;-64
2022/11/30 00:52:15;;;;;;;3.80;3.50;;;20.40;65.50;;;;;;5014158;28;20463;-63
2022/11/30 00:54:43;;;;;;;3.50;3.00;;;20.40;65.50;;;;;;5012938;28;20510;-63
2022/11/30 00:57:11;;;;;;;3.27;3.07;;;20.40;65.50;;;;;;5013397;28;20453;-63
2022/11/30 00:59:41;;;;;;;3.80;3.10;;;20.40;65.50;;;;;;5012066;28;20543;-63
2022/11/30 01:02:09;;;;;;;3.20;2.90;;;20.40;65.50;;;;;;5010676;28;20473;-63
2022/11/30 01:04:37;;;;;;;3.13;2.93;;;20.40;65.50;;;;;;5006667;28;21023;-64
2022/11/30 01:07:05;;;;;;;2.80;2.60;;;20.40;65.50;;;;;;5011326;28;20463;-64
2022/11/30 01:09:34;;;;;;;3.77;3.47;;;20.40;65.50;;;;;;5011467;28;20545;-63
2022/11/30 01:12:02;;;;;;;3.23;2.93;;;20.40;65.40;;;;;;5011705;28;20571;-63
2022/11/30 01:14:30;;;;;;;3.33;3.03;;;20.40;65.40;;;;;;5004954;28;20458;-63
2022/11/30 01:17:00;;;;;;;3.20;3.00;;;20.40;65.40;;;;;;5010807;28;20459;-64
2022/11/30 01:19:28;;;;;;;3.60;3.40;;;20.40;65.50;;;;;;5011708;28;20456;-64
2022/11/30 01:21:56;;;;;;;3.63;3.33;;;20.40;65.40;;;;;;5011294;28;20567;-64
2022/11/30 01:24:24;;;;;;;3.57;3.27;;;20.40;65.40;;;;;;5010222;28;20594;-64
2022/11/30 01:26:52;;;;;;;3.80;3.50;;;20.40;65.40;;;;;;5014093;28;20491;-63
2022/11/30 01:29:21;;;;;;;3.80;3.60;;;20.40;65.40;;;;;;5012192;28;20446;-63
2022/11/30 01:31:52;;;;;;;2.70;2.60;;;20.40;65.30;;;;;;5009272;28;20514;-64
2022/11/30 01:34:22;;;;;;;3.73;3.43;;;20.40;65.30;;;;;;5012202;28;20485;-63
2022/11/30 01:36:50;;;;;;;4.20;3.80;;;20.40;65.40;;;;;;5012554;28;20577;-64
2022/11/30 01:39:18;;;;;;;3.97;3.47;;;20.40;65.30;;;;;;5011450;28;20904;-63
2022/11/30 01:41:46;;;;;;;3.87;3.67;;;20.40;65.30;;;;;;5011009;28;20456;-63
2022/11/30 01:44:48;;;;;;;3.67;3.43;;;20.40;65.30;;;;;;5013414;28;20585;-63
2022/11/30 01:47:17;;;;;;;3.50;3.20;;;20.40;65.30;;;;;;5012154;28;20513;-63
2022/11/30 01:49:49;;;;;;;3.77;3.47;;;20.40;65.30;;;;;;5011245;28;20595;-63
2022/11/30 01:52:21;;;;;;;3.67;3.40;;;20.40;65.30;;;;;;5010058;28;20497;-64
2022/11/30 01:54:53;;;;;;;3.63;3.43;;;20.40;65.30;;;;;;5012675;28;20452;-64
2022/11/30 01:57:27;;;;;;;4.30;4.00;;;20.40;65.30;;;;;;5012619;28;20471;-64
2022/11/30 01:59:58;;;;;;;3.63;3.33;;;20.40;65.30;;;;;;5012938;28;20939;-63
2022/11/30 02:02:32;;;;;;;3.33;3.10;;;20.40;65.20;;;;;;5012639;28;20856;-63
2022/11/30 02:05:02;;;;;;;3.93;3.63;;;20.40;65.30;;;;;;5009028;28;20480;-64
2022/11/30 02:07:30;;;;;;;3.77;3.47;;;20.40;65.20;;;;;;5011731;28;20502;-64
2022/11/30 02:09:58;;;;;;;3.40;3.20;;;20.40;65.20;;;;;;5009923;28;20560;-64
2022/11/30 02:12:40;;;;;;;3.80;3.50;;;20.40;65.20;;;;;;5012378;28;20503;-64
2022/11/30 02:15:15;;;;;;;3.20;3.00;;;20.40;65.20;;;;;;5002214;28;20925;-64
2022/11/30 02:17:53;;;;;;;3.50;3.23;;;20.40;65.20;;;;;;5002921;28;20465;-63
2022/11/30 02:21:03;;;;;;;4.00;3.70;;;20.40;65.20;;;;;;5009637;28;20591;-63
2022/11/30 02:24:05;;;;;;;3.60;3.40;;;20.40;65.10;;;;;;5004954;28;20493;-64
2022/11/30 02:26:51;;;;;;;3.90;3.60;;;20.40;65.20;;;;;;5012294;28;20468;-64
2022/11/30 02:29:28;;;;;;;3.63;3.40;;;20.40;65.20;;;;;;5006466;28;20790;-63
2022/11/30 02:32:04;;;;;;;4.40;4.00;;;20.40;65.20;;;;;;5010579;28;20550;-64
2022/11/30 02:34:35;;;;;;;3.90;3.60;;;20.40;65.20;;;;;;5010718;28;20482;-63
2022/11/30 02:37:05;;;;;;;3.97;3.67;;;20.40;65.10;;;;;;5012871;28;20538;-63
2022/11/30 02:39:34;;;;;;;3.70;3.40;;;20.30;65.10;;;;;;5008048;28;20475;-63
2022/11/30 02:42:02;;;;;;;3.40;3.20;;;20.30;65.10;;;;;;5010977;28;20494;-64
2022/11/30 02:44:31;;;;;;;3.50;3.27;;;20.40;65.10;;;;;;5010810;28;20898;-64
2022/11/30 02:47:15;;;;;;;3.50;3.30;;;20.30;65.10;;;;;;5011331;28;20511;-64
2022/11/30 02:49:49;;;;;;;3.30;3.10;;;20.30;65.10;;;;;;5009901;28;20455;-63
2022/11/30 02:52:21;;;;;;;3.63;3.43;;;20.30;65.10;;;;;;5009122;28;20533;-63
2022/11/30 02:54:49;;;;;;;3.33;3.13;;;20.40;65.10;;;;;;5010292;28;20462;-64
2022/11/30 02:57:17;;;;;;;3.43;3.00;;;20.30;65.00;;;;;;5010526;28;21041;-63
2022/11/30 02:59:47;;;;;;;3.73;3.53;;;20.30;65.00;;;;;;5005825;28;20501;-63
2022/11/30 03:02:15;;;;;;;3.67;3.47;;;20.30;65.10;;;;;;5007166;28;20574;-64
2022/11/30 03:04:43;;;;;;;4.10;3.67;;;20.30;65.00;;;;;;5010591;28;20503;-64
2022/11/30 03:07:12;;;;;;;3.60;3.40;;;20.30;65.10;;;;;;5009546;28;20468;-63
2022/11/30 03:09:41;;;;;;;3.33;3.10;;;20.30;65.10;;;;;;5007812;28;20826;-63
2022/11/30 03:12:09;;;;;;;3.60;3.30;;;20.30;65.10;;;;;;5011369;28;20568;-64
2022/11/30 03:14:37;;;;;;;4.00;3.70;;;20.30;65.00;;;;;;5010644;28;21026;-64
2022/11/30 03:17:06;;;;;;;4.17;3.83;;;20.30;65.00;;;;;;5010914;28;20459;-63
2022/11/30 03:19:35;;;;;;;3.70;3.50;;;20.30;65.00;;;;;;5011887;28;20865;-63
2022/11/30 03:22:03;;;;;;;4.07;3.70;;;20.30;65.00;;;;;;5009528;28;20482;-63
2022/11/30 03:24:31;;;;;;;3.40;3.20;;;20.30;65.00;;;;;;5010999;28;21014;-63
2022/11/30 03:26:59;;;;;;;4.60;4.30;;;20.30;65.00;;;;;;5009025;28;20452;-63
2022/11/30 03:29:27;;;;;;;3.33;3.13;;;20.30;65.00;;;;;;5009679;28;20464;-63
2022/11/30 03:31:56;;;;;;;3.90;3.60;;;20.30;65.00;;;;;;5010630;28;20883;-64
2022/11/30 03:34:26;;;;;;;3.67;3.37;;;20.30;64.90;;;;;;5011107;28;20469;-63
2022/11/30 03:36:55;;;;;;;3.90;3.60;;;20.30;64.90;;;;;;5011898;28;20443;-64
2022/11/30 03:39:23;;;;;;;4.00;3.70;;;20.30;65.00;;;;;;5009459;28;20489;-63
2022/11/30 03:41:52;;;;;;;4.03;3.63;;;20.30;65.00;;;;;;5010078;28;21016;-64
2022/11/30 03:44:20;;;;;;;4.03;3.73;;;20.30;64.90;;;;;;5008988;28;20582;-63
2022/11/30 03:46:48;;;;;;;3.80;3.53;;;20.30;64.90;;;;;;5008573;28;20492;-64
2022/11/30 03:49:16;;;;;;;4.10;3.80;;;20.30;64.90;;;;;;5008449;28;20491;-64
2022/11/30 03:51:46;;;;;;;4.20;3.80;;;20.30;64.90;;;;;;5011447;28;20461;-65
2022/11/30 03:54:14;;;;;;;3.73;3.43;;;20.30;64.90;;;;;;5009934;28;20453;-63
2022/11/30 03:56:42;;;;;;;3.80;3.50;;;20.30;64.90;;;;;;5009665;28;20458;-63
2022/11/30 03:59:10;;;;;;;3.77;3.47;;;20.30;64.90;;;;;;5009749;28;20954;-63
2022/11/30 04:01:39;;;;;;;3.30;3.10;;;20.30;64.80;;;;;;5008019;28;20567;-63
2022/11/30 04:04:08;;;;;;;4.03;3.77;;;20.30;64.80;;;;;;5006369;28;20521;-63
2022/11/30 04:06:36;;;;;;;3.90;3.60;;;20.30;64.80;;;;;;5009639;28;20466;-63
2022/11/30 04:09:06;;;;;;;4.20;3.90;;;20.30;64.80;;;;;;5007363;28;20478;-64
2022/11/30 04:11:35;;;;;;;3.80;3.50;;;20.30;64.80;;;;;;5008315;28;21016;-63
2022/11/30 04:14:03;;;;;;;3.87;3.57;;;20.30;64.80;;;;;;5010057;28;20569;-64
2022/11/30 04:16:32;;;;;;;4.03;3.73;;;20.30;64.80;;;;;;5009227;28;20470;-63
2022/11/30 04:19:01;;;;;;;4.47;4.07;;;20.30;64.80;;;;;;5006201;28;20899;-64
2022/11/30 04:21:29;;;;;;;3.87;3.57;;;20.30;64.80;;;;;;5008428;28;20470;-63
2022/11/30 04:23:57;;;;;;;4.33;4.03;;;20.30;64.80;;;;;;5009712;28;20463;-65
2022/11/30 04:26:27;;;;;;;4.00;3.70;;;20.30;64.80;;;;;;5010791;28;20486;-64
2022/11/30 04:28:55;;;;;;;4.50;4.20;;;20.30;64.80;;;;;;5001223;28;20497;-63
2022/11/30 04:31:23;;;;;;;4.33;3.97;;;20.30;64.80;;;;;;5004589;28;20466;-63
2022/11/30 04:33:53;;;;;;;4.20;3.90;;;20.30;64.80;;;;;;5003592;28;20469;-63
2022/11/30 04:36:21;;;;;;;4.20;3.90;;;20.30;64.80;;;;;;5007693;28;20550;-63
2022/11/30 04:38:50;;;;;;;3.90;3.60;;;20.30;64.80;;;;;;5007628;28;20474;-63
2022/11/30 04:41:18;;;;;;;4.53;4.13;;;20.30;64.80;;;;;;5010024;28;20527;-64
2022/11/30 04:43:47;;;;;;;4.17;3.87;;;20.30;64.80;;;;;;5008445;28;20485;-64
2022/11/30 04:46:16;;;;;;;4.23;3.93;;;20.30;64.80;;;;;;5005842;28;20477;-64
2022/11/30 04:48:44;;;;;;;4.23;3.93;;;20.30;64.80;;;;;;5007178;28;21044;-63
2022/11/30 04:51:12;;;;;;;3.70;3.50;;;20.30;64.70;;;;;;5005811;28;20453;-63
2022/11/30 04:53:40;;;;;;;4.60;4.30;;;20.30;64.70;;;;;;5005428;28;20465;-63
2022/11/30 04:56:10;;;;;;;4.47;4.17;;;20.30;64.70;;;;;;5004171;28;20462;-63
2022/11/30 04:58:39;;;;;;;4.47;4.17;;;20.30;64.60;;;;;;4999308;28;20820;-63
2022/11/30 05:01:09;;;;;;;4.07;3.77;;;20.20;64.70;;;;;;5012461;28;20811;-64
2022/11/30 05:03:38;;;;;;;4.63;4.33;;;20.30;64.60;;;;;;5014474;28;20449;-64
2022/11/30 05:06:06;;;;;;;4.67;4.37;;;20.30;64.50;;;;;;5012774;28;20479;-64
2022/11/30 05:08:34;;;;;;;4.53;4.03;;;20.20;64.60;;;;;;5009708;28;20462;-64
2022/11/30 05:11:03;;;;;;;4.50;4.20;;;20.20;64.50;;;;;;5011543;28;20549;-64
2022/11/30 05:13:31;;;;;;;5.80;5.20;;;20.20;64.60;;;;;;5005335;28;20569;-64
2022/11/30 05:15:59;;;;;;;4.27;3.90;;;20.20;64.60;;;;;;5004570;28;20462;-64
2022/11/30 05:18:30;;;;;;;4.53;4.13;;;20.20;64.50;;;;;;5012402;28;20490;-64
2022/11/30 05:20:58;;;;;;;4.57;4.27;;;20.20;64.50;;;;;;5012789;28;20447;-64
2022/11/30 05:23:27;;;;;;;4.63;4.23;;;20.20;64.50;;;;;;5012725;28;20473;-64
2022/11/30 05:25:55;;;;;;;4.23;3.93;;;20.20;64.50;;;;;;5010220;28;20491;-64
2022/11/30 05:28:23;;;;;;;5.33;4.93;;;20.20;64.50;;;;;;5007973;28;20897;-64
2022/11/30 05:30:51;;;;;;;4.43;4.03;;;20.20;64.50;;;;;;5009119;28;20542;-63
2022/11/30 05:33:19;;;;;;;4.87;4.47;;;20.20;64.40;;;;;;5010083;28;20849;-64
2022/11/30 05:35:49;;;;;;;4.30;3.90;;;20.20;64.50;;;;;;5005344;28;20486;-64
2022/11/30 05:38:17;;;;;;;5.00;4.30;;;20.20;64.50;;;;;;5009500;28;20801;-63
2022/11/30 05:40:45;;;;;;;5.10;4.70;;;20.20;65.40;;;;;;5001939;28;20847;-64
2022/11/30 05:43:14;;;;;;;3.93;3.43;;;20.20;66.00;;;;;;5005396;28;20520;-65
2022/11/30 05:45:42;;;;;;;4.77;4.37;;;20.20;66.20;;;;;;5008657;28;20482;-67
2022/11/30 05:48:10;;;;;;;4.07;3.77;;;20.30;66.20;;;;;;5002616;28;20488;-67
2022/11/30 05:50:38;;;;;;;4.03;3.73;;;20.20;65.90;;;;;;5006992;28;20526;-67
2022/11/30 05:53:08;;;;;;;7.90;3.83;;;20.20;65.90;;;;;;5006687;28;20550;-66
2022/11/30 05:55:36;;;;;;;4.50;4.10;;;20.20;65.90;;;;;;5004543;28;20465;-65
2022/11/30 05:58:05;;;;;;;4.47;4.07;;;20.20;65.90;;;;;;5011202;28;20497;-65
2022/11/30 06:00:33;;;;;;;4.20;3.90;;;20.20;65.90;;;;;;5006873;28;21310;-65
2022/11/30 06:03:01;;;;;;;4.20;3.83;;;20.10;65.90;;;;;;5006772;28;20458;-66
2022/11/30 06:05:29;;;;;;;5.73;3.80;;;20.10;66.00;;;;;;5002323;28;20471;-66
2022/11/30 06:07:59;;;;;;;4.17;3.77;;;20.10;66.00;;;;;;5007903;28;20562;-66
2022/11/30 06:10:29;;;;;;;4.50;4.10;;;20.10;66.00;;;;;;5009743;28;20497;-65
2022/11/30 06:12:57;;;;;;;4.77;4.13;;;20.10;66.00;;;;;;5005854;28;20442;-65
2022/11/30 06:15:25;;;;;;;4.80;3.90;;;20.10;66.10;;;;;;5006136;28;20465;-66
2022/11/30 06:17:55;;;;;;;5.77;3.73;;;20.00;66.10;;;;;;5003936;28;20477;-65
2022/11/30 06:20:23;;;;;;;3.90;3.60;;;20.00;66.10;;;;;;5005074;28;21033;-65
2022/11/30 06:22:51;;;;;;;4.43;3.97;;;20.00;66.10;;;;;;5000630;28;20540;-65
2022/11/30 06:25:20;;;;;;;4.30;4.00;;;20.00;66.10;;;;;;5006618;28;20603;-65
2022/11/30 06:27:49;;;;;;;3.77;3.47;;;20.00;66.10;;;;;;5000865;28;20482;-65
2022/11/30 06:30:18;;;;;;;4.67;4.37;;;20.00;66.20;;;;;;5007066;28;20454;-65
2022/11/30 06:32:46;;;;;;;3.87;3.47;;;20.00;66.20;;;;;;5010925;28;20616;-65
2022/11/30 06:35:14;;;;;;;3.50;3.30;;;20.00;66.20;;;;;;5008588;28;21888;-65
2022/11/30 06:37:43;;;;;;;3.80;3.50;;;20.00;66.20;;;;;;5002411;28;20462;-65
2022/11/30 06:40:13;;;;;;;3.67;3.37;;;20.00;66.20;;;;;;5001285;28;20576;-65
2022/11/30 06:42:41;;;;;;;4.10;3.70;;;20.00;66.20;;;;;;5002461;28;20534;-65
2022/11/30 06:45:11;;;;;;;3.60;3.30;;;20.00;66.20;;;;;;5005750;28;20450;-65
2022/11/30 06:47:39;;;;;;;3.50;3.20;;;20.00;66.20;;;;;;5003156;28;20899;-65
2022/11/30 06:50:08;;;;;;;3.40;3.10;;;19.90;66.30;;;;;;5005217;28;20924;-65
2022/11/30 06:52:36;;;;;;;3.10;2.90;;;19.90;66.30;;;;;;5008300;28;20442;-66
2022/11/30 06:55:05;;;;;;;4.47;4.07;;;19.90;66.30;;;;;;5010551;28;20485;-65
2022/11/30 06:57:34;;;;;;;4.77;3.77;;;19.90;66.30;;;;;;5007190;28;20448;-66
2022/11/30 07:00:03;;;;;;;3.97;3.67;;;19.90;66.30;;;;;;5004879;28;20547;-65
2022/11/30 07:02:33;;;;;;;3.60;3.30;;;19.90;66.30;;;;;;5010244;28;20546;-65
2022/11/30 07:05:01;;;;;;;3.50;3.30;;;19.90;66.30;;;;;;5006862;28;20493;-66
2022/11/30 07:07:29;;;;;;;3.20;2.90;;;19.90;66.30;;;;;;4994347;28;20815;-66
2022/11/30 07:09:58;;;;;;;3.73;3.47;;;19.90;66.30;;;;;;4994357;28;20862;-66
2022/11/30 07:12:26;;;;;;;3.50;3.20;;;19.90;66.30;;;;;;4998506;28;20541;-66
2022/11/30 07:14:55;;;;;;;3.70;3.40;;;19.90;66.30;;;;;;4997540;28;20442;-66
2022/11/30 07:17:23;;;;;;;3.90;3.60;;;19.90;66.40;;;;;;4996405;28;21020;-66
2022/11/30 07:19:53;;;;;;;4.83;4.43;;;19.90;66.40;;;;;;4998738;28;20456;-66
2022/11/30 07:22:21;;;;;;;3.67;3.37;;;19.90;66.40;;;;;;5003093;28;20536;-66
2022/11/30 07:27:34;;;;;;;3.53;3.23;;;19.90;66.40;;;;;;4993805;28;20541;-66
2022/11/30 07:30:03;;;;;;;3.40;3.20;;;19.90;66.40;;;;;;4995730;28;21006;-66
2022/11/30 07:32:31;;;;;;;3.37;3.17;;;19.90;66.40;;;;;;4996076;28;20459;-65
2022/11/30 07:35:03;;;;;;;3.57;3.37;;;19.90;66.40;;;;;;4997619;28;21011;-66
2022/11/30 07:37:32;;;;;;;3.30;2.93;;;19.90;66.40;;;;;;4995293;28;20467;-66
2022/11/30 07:40:00;;;;;;;4.47;4.17;;;19.90;66.40;;;;;;4999754;28;20455;-66
2022/11/30 07:42:28;;;;;;;3.50;3.20;;;19.90;66.40;;;;;;4998316;28;20814;-66
2022/11/30 07:44:58;;;;;;;3.23;2.93;;;19.90;66.40;;;;;;4987559;28;20473;-66
2022/11/30 07:47:27;;;;;;;3.40;3.10;;;19.90;66.40;;;;;;4998852;28;20502;-66
2022/11/30 07:49:55;;;;;;;3.13;2.93;;;19.90;66.40;;;;;;4997807;28;20446;-66
2022/11/30 07:52:24;;;;;;;3.93;3.63;;;19.90;66.40;;;;;;4999112;28;20524;-66
2022/11/30 07:54:53;;;;;;;3.20;3.00;;;19.90;66.40;;;;;;5010799;28;20454;-66
2022/11/30 07:57:21;;;;;;;3.57;3.37;;;19.90;66.40;;;;;;5007314;28;20499;-66
2022/11/30 07:59:49;;;;;;;3.07;2.87;;;19.90;66.50;;;;;;5001961;28;20527;-66
2022/11/30 08:02:17;;;;;;;3.47;3.17;;;19.90;66.50;;;;;;5010557;28;20880;-66
2022/11/30 08:04:46;;;;;;;3.77;3.47;;;19.80;66.50;;;;;;5007833;28;20489;-65
2022/11/30 08:07:15;;;;;;;3.90;3.60;;;19.80;66.50;;;;;;5006804;28;20594;-65
2022/11/30 08:09:45;;;;;;;2.90;2.70;;;19.80;66.50;;;;;;4996976;28;20512;-65
2022/11/30 08:12:13;;;;;;;3.50;3.20;;;19.80;66.50;;;;;;4997467;28;20546;-65
2022/11/30 08:14:41;;;;;;;3.60;3.40;;;19.80;66.50;;;;;;4997807;28;20455;-65
2022/11/30 08:17:29;;;;;;;3.03;2.83;;;19.80;66.50;;;;;;4996611;28;20467;-65
2022/11/30 08:19:57;;;;;;;3.90;3.60;;;19.80;66.50;;;;;;4998520;28;20480;-65
2022/11/30 08:22:26;;;;;;;3.30;3.10;;;19.80;66.50;;;;;;5000219;28;20474;-66
2022/11/30 08:24:55;;;;;;;4.53;4.17;;;19.80;66.50;;;;;;4998963;28;20500;-70
2022/11/30 08:27:23;;;;;;;4.20;3.80;;;19.80;66.90;;;;;;5006121;28;20487;-69
2022/11/30 08:29:52;;;;;;;4.50;4.07;;;19.90;67.90;;;;;;5009768;28;20455;-70
2022/11/30 08:32:20;;;;;;;5.53;5.03;;;19.90;68.30;;;;;;5009179;28;20506;-70
2022/11/30 08:34:48;;;;;;;5.20;4.70;;;19.90;68.10;;;;;;5013942;28;20488;-71
2022/11/30 08:37:17;;;;;;;6.30;4.80;;;20.00;68.10;;;;;;5015433;28;20449;-70
2022/11/30 08:39:45;;;;;;;5.00;4.50;;;20.00;68.00;;;;;;5014282;28;20564;-69
2022/11/30 08:42:15;;;;;;;5.30;4.80;;;20.00;68.00;;;;;;5013105;28;20449;-70
2022/11/30 08:44:43;;;;;;;6.40;5.80;;;20.10;67.90;;;;;;5012991;28;20586;-70
2022/11/30 08:47:11;;;;;;;5.37;4.90;;;20.10;67.90;;;;;;5012835;28;20497;-70
2022/11/30 08:49:39;;;;;;;5.93;5.43;;;20.10;67.80;;;;;;5014307;28;20447;-70
2022/11/30 08:52:08;;;;;;;5.30;4.80;;;20.10;67.80;;;;;;5014528;28;20465;-69
2022/11/30 08:54:46;;;;;;;6.33;5.10;;;20.20;67.80;;;;;;5012478;28;20446;-68
2022/11/30 08:57:18;;;;;;;6.47;5.17;;;20.20;67.70;;;;;;5014209;28;20959;-69
2022/11/30 08:59:48;;;;;;;5.67;5.23;;;20.20;67.70;;;;;;5015320;28;20485;-71
2022/11/30 09:02:18;;;;;;;6.00;5.50;;;20.20;67.60;;;;;;5013853;28;20541;-69
2022/11/30 09:04:49;;;;;;;5.50;5.00;;;20.20;67.50;;;;;;5014198;28;20450;-69
2022/11/30 09:07:18;;;;;;;5.63;5.13;;;20.30;67.40;;;;;;5008941;28;20989;-70
2022/11/30 09:09:46;;;;;;;5.60;5.10;;;20.30;67.30;;;;;;5010537;28;20522;-69
2022/11/30 09:12:14;;;;;;;5.67;5.17;;;20.30;67.20;;;;;;5013242;28;20506;-70
2022/11/30 09:14:45;;;;;;;6.40;5.90;;;20.40;67.10;;;;;;5013087;28;20481;-69
2022/11/30 09:17:19;;;;;;;5.63;5.17;;;20.40;67.10;;;;;;5014716;28;20841;-70
2022/11/30 09:19:47;;;;;;;5.43;5.03;;;20.40;67.10;;;;;;5012599;28;20557;-68
2022/11/30 09:22:16;;;;;;;5.33;4.83;;;20.40;67.10;;;;;;5010781;28;20538;-69
2022/11/30 09:24:44;;;;;;;5.87;5.27;;;20.40;67.00;;;;;;5012289;28;20529;-69
2022/11/30 09:27:13;;;;;;;7.40;5.73;;;20.40;67.00;;;;;;5014188;28;20888;-70
2022/11/30 09:29:41;;;;;;;5.70;5.20;;;20.40;67.00;;;;;;5013075;28;20444;-70
2022/11/30 09:32:11;;;;;;;5.70;5.20;;;20.40;66.90;;;;;;5018121;28;20467;-70
2022/11/30 09:34:39;;;;;;;5.90;5.40;;;20.50;66.80;;;;;;5012380;28;20498;-70
2022/11/30 09:37:07;;;;;;;6.43;5.93;;;20.50;66.80;;;;;;5011233;28;20454;-70
2022/11/30 09:39:36;;;;;;;5.77;5.20;;;20.50;66.70;;;;;;5013674;28;20902;-70
2022/11/30 09:42:32;;;;;;;6.70;5.97;;;20.50;66.60;;;;;;5013726;28;20461;-69
2022/11/30 09:45:06;;;;;;;6.30;5.80;;;20.50;66.60;;;;;;5010740;28;20452;-71
2022/11/30 09:48:08;;;;;;;5.90;5.40;;;20.50;66.60;;;;;;5013037;28;20508;-69
2022/11/30 09:50:41;;;;;;;6.17;5.17;;;20.60;66.50;;;;;;5009148;28;20983;-70
2022/11/30 09:53:15;;;;;;;6.23;5.70;;;20.50;66.50;;;;;;5012108;28;20547;-69
2022/11/30 09:55:44;;;;;;;6.33;5.77;;;20.60;66.50;;;;;;5013556;28;20978;-70
2022/11/30 09:58:23;;;;;;;6.73;5.97;;;20.60;66.50;;;;;;5012673;28;20483;-70
2022/11/30 10:00:51;;;;;;;5.77;5.27;;;20.60;66.40;;;;;;5012674;28;20810;-71
2022/11/30 10:03:23;;;;;;;5.73;5.27;;;20.60;66.30;;;;;;5012079;28;21028;-69
2022/11/30 10:05:59;;;;;;;5.87;5.37;;;20.60;66.40;;;;;;5016268;28;20497;-70
2022/11/30 10:08:38;;;;;;;6.93;5.47;;;20.60;66.40;;;;;;5008752;28;20577;-69
2022/11/30 10:11:19;;;;;;;5.77;5.20;;;20.60;66.50;;;;;;5006945;28;20451;-69
2022/11/30 10:13:57;;;;;;;5.30;4.90;;;20.60;66.40;;;;;;5010088;28;20509;-70
2022/11/30 10:16:35;;;;;;;5.93;5.40;;;20.60;66.40;;;;;;5013299;28;20466;-70
2022/11/30 10:19:15;;;;;;;6.10;5.50;;;20.60;66.40;;;;;;5011781;28;20454;-74
2022/11/30 10:21:59;;;;;;;6.10;5.30;;;20.60;66.40;;;;;;5013087;28;20930;-69
2022/11/30 10:24:36;;;;;;;6.00;5.50;;;20.60;66.40;;;;;;5007810;28;20482;-69
2022/11/30 10:27:12;;;;;;;5.40;4.97;;;20.60;66.50;;;;;;5007270;28;20460;-69
2022/11/30 10:29:42;;;;;;;6.13;5.60;;;20.60;66.40;;;;;;5008803;28;20573;-70
2022/11/30 10:32:17;;;;;;;7.80;5.90;;;20.70;66.30;;;;;;5010338;28;20543;-69
2022/11/30 10:34:49;;;;;;;6.40;5.90;;;20.70;66.40;;;;;;5007895;28;20577;-69
2022/11/30 10:37:22;;;;;;;5.77;5.27;;;20.70;66.40;;;;;;5013735;28;20538;-69
2022/11/30 10:40:00;;;;;;;5.53;5.03;;;20.70;66.40;;;;;;5009459;28;20462;-70
2022/11/30 10:42:33;;;;;;;5.40;4.93;;;20.70;66.40;;;;;;5012662;28;20525;-68
2022/11/30 10:45:08;;;;;;;6.73;6.03;;;20.70;66.40;;;;;;5012550;28;20482;-70
2022/11/30 10:47:43;;;;;;;6.70;6.03;;;20.70;66.40;;;;;;5010167;28;20985;-69
2022/11/30 10:50:15;;;;;;;5.63;5.13;;;20.70;66.40;;;;;;5011649;28;21033;-70
2022/11/30 10:52:46;;;;;;;5.87;5.37;;;20.70;66.40;;;;;;5011810;28;20461;-69
2022/11/30 10:55:18;;;;;;;6.40;5.80;;;20.70;66.30;;;;;;5011123;28;20550;-69
2022/11/30 10:57:48;;;;;;;6.80;6.03;;;20.70;66.30;;;;;;5011785;28;20451;-68
2022/11/30 11:00:17;;;;;;;5.70;5.20;;;20.80;66.30;;;;;;5011531;28;20535;-69
2022/11/30 11:02:46;;;;;;;5.80;5.30;;;20.70;66.30;;;;;;5008710;28;20467;-66
2022/11/30 11:05:22;;;;;;;5.87;5.37;;;20.70;66.30;;;;;;5008176;28;20462;-66
2022/11/30 11:07:57;;;;;;;5.70;5.20;;;20.70;66.10;;;;;;5006262;28;20536;-66
2022/11/30 11:10:35;;;;;;;6.10;5.50;;;20.70;66.00;;;;;;5008985;28;20447;-66
2022/11/30 11:13:05;;;;;;;5.50;5.00;;;20.70;65.90;;;;;;5011259;28;20518;-66
2022/11/30 11:15:34;;;;;;;5.90;5.30;;;20.70;65.80;;;;;;5016074;28;21021;-66
2022/11/30 11:18:21;;;;;;;5.60;5.10;;;20.70;65.80;;;;;;5011042;28;20498;-67
2022/11/30 11:21:01;;;;;;;6.47;5.87;;;20.70;65.70;;;;;;5006478;28;20449;-66
2022/11/30 11:23:38;;;;;;;6.13;5.60;;;20.70;65.70;;;;;;5009967;28;20519;-66
2022/11/30 11:26:15;;;;;;;6.40;5.90;;;20.70;65.60;;;;;;5007359;28;20491;-66
2022/11/30 11:28:45;;;;;;;7.47;6.70;;;20.60;65.60;;;;;;5011610;28;21013;-66
2022/11/30 11:31:19;;;;;;;6.00;5.50;;;20.60;65.60;;;;;;5012345;28;20492;-66
2022/11/30 11:33:53;;;;;;;9.20;6.20;;;20.60;65.60;;;;;;5011613;28;20456;-66
2022/11/30 11:36:28;;;;;;;6.17;5.53;;;20.60;65.60;;;;;;5006480;28;20507;-66
2022/11/30 11:38:56;;;;;;;5.70;5.20;;;20.60;65.60;;;;;;5006094;28;20993;-66
2022/11/30 11:41:26;;;;;;;7.47;5.10;;;20.60;65.60;;;;;;5002637;28;20463;-67
2022/11/30 11:44:02;;;;;;;6.70;6.10;;;20.60;65.50;;;;;;4987538;28;20466;-66
2022/11/30 11:46:31;;;;;;;7.30;6.60;;;20.60;65.40;;;;;;5000563;28;20487;-66
2022/11/30 11:49:02;;;;;;;6.93;6.10;;;20.50;65.40;;;;;;5000656;28;20548;-66
2022/11/30 11:51:34;;;;;;;7.23;6.20;;;20.50;65.50;;;;;;5001600;28;20531;-66
2022/11/30 11:54:12;;;;;;;7.20;6.60;;;20.50;65.50;;;;;;5002380;28;20453;-67
2022/11/30 11:56:40;;;;;;;5.57;5.07;;;20.50;65.50;;;;;;5004947;28;20886;-66
2022/11/30 11:59:16;;;;;;;5.63;5.13;;;20.50;65.50;;;;;;5001580;28;20530;-66
2022/11/30 12:01:54;;;;;;;5.97;5.40;;;20.50;65.50;;;;;;5000854;28;20495;-67
2022/11/30 12:04:41;;;;;;;6.83;5.83;;;20.50;65.50;;;;;;5002514;28;20491;-66
2022/11/30 12:07:22;;;;;;;6.43;5.83;;;20.50;65.50;;;;;;5003812;28;20545;-66
2022/11/30 12:10:10;;;;;;;6.47;5.87;;;20.50;65.60;;;;;;5007351;28;20481;-66
2022/11/30 12:12:59;;;;;;;6.80;6.20;;;20.40;65.70;;;;;;5006792;28;20466;-66
2022/11/30 12:15:32;;;;;;;6.37;5.77;;;20.40;65.70;;;;;;5012032;28;20955;-67
2022/11/30 12:18:08;;;;;;;7.87;5.70;;;20.40;65.70;;;;;;5005288;28;20456;-67
2022/11/30 12:20:54;;;;;;;7.13;6.40;;;20.40;65.80;;;;;;5004210;28;20460;-67
2022/11/30 12:23:47;;;;;;;6.43;5.83;;;20.40;65.90;;;;;;5012112;28;20955;-66
2022/11/30 12:26:24;;;;;;;5.67;5.17;;;20.40;65.90;;;;;;5010845;28;20976;-66
2022/11/30 12:29:09;;;;;;;6.90;6.20;;;20.40;65.90;;;;;;5006778;28;21802;-66
2022/11/30 12:31:50;;;;;;;6.77;5.90;;;20.40;66.00;;;;;;5012047;28;20463;-65
2022/11/30 12:34:26;;;;;;;7.57;5.60;;;20.40;66.40;;;;;;5014784;28;20486;-66
2022/11/30 12:37:00;;;;;;;6.57;5.97;;;20.40;66.60;;;;;;5015749;28;20544;-66
2022/11/30 12:39:38;;;;;;;6.37;5.50;;;20.40;66.70;;;;;;5014774;28;20501;-65
2022/11/30 12:42:12;;;;;;;6.77;5.70;;;20.40;66.80;;;;;;5011562;28;20495;-66
2022/11/30 12:44:49;;;;;;;7.90;5.60;;;20.40;66.90;;;;;;5014850;28;20537;-65
2022/11/30 12:47:38;;;;;;;8.00;6.43;;;20.40;67.00;;;;;;5017044;28;20565;-66
2022/11/30 12:50:22;;;;;;;7.20;6.53;;;20.40;67.10;;;;;;5016963;28;20572;-66
2022/11/30 12:52:57;;;;;;;6.70;5.93;;;20.40;67.10;;;;;;5014434;28;20935;-65
2022/11/30 12:55:34;;;;;;;6.43;5.40;;;20.40;67.20;;;;;;5011096;28;20554;-67
2022/11/30 12:58:12;;;;;;;5.57;5.03;;;20.50;67.30;;;;;;5014342;28;20471;-67
2022/11/30 13:00:50;;;;;;;7.03;6.00;;;20.50;67.20;;;;;;5014346;28;20465;-66
2022/11/30 13:03:52;;;;;;;6.30;5.80;;;20.50;67.20;;;;;;5009922;28;20480;-66
2022/11/30 13:06:27;;;;;;;9.47;5.70;;;20.60;67.20;;;;;;5008859;28;20463;-66
2022/11/30 13:09:02;;;;;;;5.67;5.07;;;20.60;67.30;;;;;;5014479;28;20490;-66
2022/11/30 13:11:36;;;;;;;5.97;5.47;;;20.60;67.30;;;;;;5016093;28;20580;-66